^^
Datos históricos de la estación: Murcia-Puente Tocinos
Diario Informe para Mayo 8, 2019 Unidades:  Métrico    Ingés   Ambas
Diario Semanal Mensual Anual
  Máxima: Mínima: Promedio:
Temperatura: 17.7 °C 11.4 °C 14.6 °C
Punto de rocio: 3.6 °C 0.3 °C 1.4 °C
Humedad: 58% 32% 41%
Velocidad viento: 21.7km/h 3.9km/h 12.5km/h
Racha viento: 40.7km/h - -
Viento- - OSO
Presión: 1017.9 hPa 1009.7 hPa -
Precipitación: 0.0 mm    
 
 
Tabla de datos para Mayo 8, 2019
Hora Temperatura Punto de rocio Presión Viento Velocidad viento Racha viento Humedad Intensidad lluvia(por hora) Nubes
00:04 15.3 °C 2.8 °C 1010.4 hPa OSO 9.7 km/h 22.2 km/h 43% 0.0 mm
00:09 15.3 °C 2.8 °C 1010.5 hPa OSO 10 km/h 22.5 km/h 43% 0.0 mm
00:14 15.2 °C 2.7 °C 1010.5 hPa OSO 10 km/h 14.8 km/h 43% 0.0 mm
00:19 15.1 °C 2.6 °C 1010.5 hPa OSO 10 km/h 16.7 km/h 43% 0.0 mm
00:24 15 °C 2.5 °C 1010.5 hPa SO 8.9 km/h 16.1 km/h 43% 0.0 mm
00:29 14.9 °C 2.4 °C 1010.3 hPa OSO 8.7 km/h 17.2 km/h 42.9% 0.0 mm
00:34 14.9 °C 2.2 °C 1010.3 hPa OSO 8.4 km/h 17.7 km/h 42.3% 0.0 mm
00:39 14.8 °C 2 °C 1010.3 hPa OSO 8.4 km/h 19 km/h 42% 0.0 mm
00:44 14.8 °C 2 °C 1010.2 hPa OSO 9.7 km/h 19.3 km/h 42% 0.0 mm
00:49 14.7 °C 1.6 °C 1010.2 hPa OSO 10 km/h 16.7 km/h 41.2% 0.0 mm
00:54 14.7 °C 1.5 °C 1010.2 hPa OSO 8 km/h 18.5 km/h 41% 0.0 mm
00:59 14.6 °C 1.5 °C 1010.0 hPa OSO 7.6 km/h 19.3 km/h 41% 0.0 mm
01:04 14.7 °C 1.2 °C 1010.0 hPa OSO 9.2 km/h 17.2 km/h 40.1% 0.0 mm
01:09 14.7 °C 1.2 °C 1010.0 hPa OSO 9.5 km/h 18.3 km/h 40% 0.0 mm
01:14 14.7 °C 1.2 °C 1010.0 hPa OSO 9.9 km/h 18.5 km/h 40% 0.0 mm
01:19 14.7 °C 1.1 °C 1010.0 hPa OSO 10 km/h 20.4 km/h 39.7% 0.0 mm
01:24 14.8 °C 1.2 °C 1010.0 hPa OSO 10.9 km/h 20.9 km/h 39.7% 0.0 mm
01:29 14.8 °C 1.3 °C 1010.0 hPa OSO 11.1 km/h 22.2 km/h 40% 0.0 mm
01:34 14.8 °C 1.3 °C 1010.0 hPa OSO 11.1 km/h 22.5 km/h 40% 0.0 mm
01:39 14.7 °C 1.4 °C 1010.0 hPa ONO 11.1 km/h 20.9 km/h 40.5% 0.0 mm
01:44 14.5 °C 1.6 °C 1010.0 hPa NO 8.3 km/h 14.5 km/h 41.6% 0.0 mm
01:49 14 °C 1.6 °C 1010.0 hPa ONO 7.6 km/h 13.7 km/h 42.8% 0.0 mm
01:54 13.5 °C 1.6 °C 1010.0 hPa ONO 7.1 km/h 14.5 km/h 44.4% 0.0 mm
01:59 13.2 °C 1.7 °C 1009.9 hPa ONO 6.9 km/h 16.4 km/h 45.5% 0.0 mm
02:04 13 °C 1.6 °C 1009.9 hPa ONO 7.5 km/h 16.7 km/h 46% 0.0 mm
02:09 12.9 °C 1.6 °C 1010.0 hPa Oeste 7.6 km/h 13 km/h 46% 0.0 mm
02:14 12.9 °C 1.6 °C 1010.0 hPa Oeste 7.6 km/h 12.9 km/h 46.1% 0.0 mm
02:19 12.8 °C 1.8 °C 1010.0 hPa Oeste 7.6 km/h 11.3 km/h 47% 0.0 mm
02:24 12.8 °C 1.8 °C 1010.0 hPa Oeste 6.2 km/h 9.7 km/h 47% 0.0 mm
02:29 12.8 °C 1.8 °C 1009.8 hPa ONO 5.8 km/h 9.7 km/h 47% 0.0 mm
02:34 12.8 °C 1.8 °C 1009.8 hPa Oeste 5.1 km/h 10 km/h 47% 0.0 mm
02:39 12.7 °C 1.7 °C 1009.8 hPa ONO 5 km/h 13 km/h 47% 0.0 mm
02:44 12.7 °C 1.7 °C 1009.7 hPa ONO 6.2 km/h 12.9 km/h 47% 0.0 mm
02:49 12.7 °C 1.7 °C 1009.7 hPa Oeste 6.5 km/h 13 km/h 47.1% 0.0 mm
02:54 12.7 °C 1.8 °C 1009.8 hPa ONO 7.4 km/h 12.9 km/h 47.4% 0.0 mm
02:59 12.8 °C 1.8 °C 1009.8 hPa ONO 7.6 km/h 14.8 km/h 47.2% 0.0 mm
03:04 12.8 °C 1.8 °C 1009.8 hPa ONO 7 km/h 14.8 km/h 47% 0.0 mm
03:09 12.7 °C 2 °C 1009.9 hPa NO 6.9 km/h 16.7 km/h 47.9% 0.0 mm
03:14 12.5 °C 1.9 °C 1009.9 hPa NO 8.3 km/h 16.1 km/h 48.2% 0.0 mm
03:19 12.4 °C 1.9 °C 1009.9 hPa ONO 8.7 km/h 15.6 km/h 49% 0.0 mm
03:24 12.4 °C 1.9 °C 1010.0 hPa ONO 9.4 km/h 18.3 km/h 49% 0.0 mm
03:29 12.5 °C 2.1 °C 1010.0 hPa ONO 9.5 km/h 19.3 km/h 49% 0.0 mm
03:34 12.6 °C 2.3 °C 1010.0 hPa ONO 10.2 km/h 19.3 km/h 49.5% 0.0 mm
03:39 12.5 °C 2.5 °C 1010.2 hPa NO 10.3 km/h 16.1 km/h 50.4% 0.0 mm
03:44 12.3 °C 2.5 °C 1010.2 hPa NNO 7.6 km/h 12.9 km/h 51.2% 0.0 mm
03:49 12.1 °C 2.7 °C 1010.2 hPa NO 6.9 km/h 9.3 km/h 52.6% 0.0 mm
03:54 12 °C 3 °C 1010.2 hPa ONO 5.4 km/h 18.5 km/h 54.2% 0.0 mm
03:59 12.2 °C 3.3 °C 1010.2 hPa ONO 5 km/h 19.3 km/h 54.5% 0.0 mm
04:04 12.5 °C 3.4 °C 1010.2 hPa ONO 9.6 km/h 19.3 km/h 54% 0.0 mm
04:09 12.6 °C 3.6 °C 1010.2 hPa ONO 10.3 km/h 15.6 km/h 54% 0.0 mm
04:14 12.6 °C 3.6 °C 1010.1 hPa ONO 9 km/h 16.1 km/h 54% 0.0 mm
04:19 12.4 °C 3.6 °C 1010.1 hPa ONO 8.7 km/h 14.5 km/h 54.8% 0.0 mm
04:24 12.3 °C 3.5 °C 1010.2 hPa ONO 8.4 km/h 13.7 km/h 55% 0.0 mm
04:29 12.2 °C 3.4 °C 1010.2 hPa ONO 8.4 km/h 16.7 km/h 55% 0.0 mm
04:34 12.2 °C 3.5 °C 1010.2 hPa ONO 9.3 km/h 16.1 km/h 55.4% 0.0 mm
04:39 12.2 °C 3.6 °C 1010.3 hPa ONO 9.5 km/h 17.2 km/h 56% 0.0 mm
04:44 12.1 °C 3.6 °C 1010.3 hPa ONO 9.5 km/h 17.7 km/h 56% 0.0 mm
04:49 12.1 °C 3.6 °C 1010.3 hPa ONO 9.5 km/h 17.7 km/h 56% 0.0 mm
04:54 12.2 °C 3.6 °C 1010.6 hPa ONO 10.1 km/h 17.7 km/h 56% 0.0 mm
04:59 12.1 °C 3.6 °C 1010.6 hPa Oeste 10.3 km/h 18.3 km/h 56% 0.0 mm
05:04 12.1 °C 3.5 °C 1010.6 hPa Oeste 10.3 km/h 19.3 km/h 56% 0.0 mm
05:09 11.9 °C 3.4 °C 1010.7 hPa Oeste 10.3 km/h 19.3 km/h 56% 0.0 mm
05:14 11.9 °C 3.4 °C 1010.7 hPa Oeste 9.7 km/h 16.7 km/h 56% 0.0 mm
05:19 11.8 °C 3.3 °C 1010.7 hPa Oeste 9.5 km/h 16.1 km/h 56% 0.0 mm
05:24 11.8 °C 3.3 °C 1011.0 hPa Oeste 8.9 km/h 13.7 km/h 56% 0.0 mm
05:29 11.8 °C 3.3 °C 1011.0 hPa Oeste 8.7 km/h 14.5 km/h 56% 0.0 mm
05:34 11.8 °C 3.3 °C 1011.0 hPa Oeste 6.9 km/h 16.7 km/h 56% 0.0 mm
05:39 11.8 °C 3.3 °C 1011.2 hPa Oeste 6.5 km/h 16.1 km/h 56% 0.0 mm
05:44 11.9 °C 3.2 °C 1011.2 hPa Oeste 7.4 km/h 14.8 km/h 55.4% 0.0 mm
05:49 11.9 °C 3.2 °C 1011.2 hPa Oeste 7.6 km/h 14.5 km/h 55% 0.0 mm
05:54 12 °C 3 °C 1011.3 hPa Oeste 8.5 km/h 13.7 km/h 54% 0.0 mm
05:59 12.1 °C 3.1 °C 1011.3 hPa OSO 8.7 km/h 14.5 km/h 54% 0.0 mm
06:04 12.1 °C 2.8 °C 1011.3 hPa OSO 7.2 km/h 13 km/h 53.1% 0.0 mm
06:09 12.1 °C 2.8 °C 1011.5 hPa Sur 6.9 km/h 12.9 km/h 53% 0.0 mm
06:14 12.1 °C 3 °C 1011.5 hPa SSE 5.4 km/h 9.7 km/h 53.6% 0.0 mm
06:19 12.1 °C 3.4 °C 1011.5 hPa SE 5 km/h 8 km/h 55.4% 0.0 mm
06:24 11.9 °C 3.4 °C 1011.5 hPa SE 4.7 km/h 8 km/h 56.1% 0.0 mm
06:29 11.7 °C 3.5 °C 1011.4 hPa SE 4.7 km/h 8 km/h 57% 0.0 mm
06:34 11.7 °C 3.6 °C 1011.4 hPa ESE 4 km/h 8 km/h 57.6% 0.0 mm
06:39 11.6 °C 3.6 °C 1011.4 hPa ESE 3.9 km/h 8.7 km/h 57.9% 0.0 mm
06:44 11.5 °C 3.5 °C 1011.4 hPa ESE 3.9 km/h 9.7 km/h 58% 0.0 mm
06:49 11.4 °C 3.1 °C 1011.4 hPa Sur 3.9 km/h 9.5 km/h 56.8% 0.0 mm
06:54 11.6 °C 2.9 °C 1011.5 hPa Oeste 4.5 km/h 9.7 km/h 55.4% 0.0 mm
06:59 11.7 °C 2.9 °C 1011.5 hPa OSO 4.7 km/h 9.7 km/h 54.9% 0.0 mm
07:04 11.7 °C 2.7 °C 1011.5 hPa Oeste 4.9 km/h 14 km/h 54.2% 0.0 mm
07:09 11.8 °C 2.4 °C 1011.6 hPa Oeste 5 km/h 24.1 km/h 52.8% 0.0 mm
07:14 12 °C 2.2 °C 1011.6 hPa Oeste 8.7 km/h 24.1 km/h 51.2% 0.0 mm
07:19 12.2 °C 2.1 °C 1011.6 hPa Oeste 9.5 km/h 27.8 km/h 49.9% 0.0 mm
07:24 12.5 °C 1.9 °C 1011.6 hPa Oeste 13.1 km/h 29.8 km/h 48.7% 0.0 mm
07:29 12.7 °C 1.8 °C 1011.6 hPa Oeste 14 km/h 31.7 km/h 47.5% 0.0 mm
07:34 12.8 °C 1.8 °C 1011.6 hPa Oeste 16.6 km/h 32.2 km/h 47% 0.0 mm
07:39 12.9 °C 1.7 °C 1011.9 hPa Oeste 17.2 km/h 35.2 km/h 46.4% 0.0 mm
07:44 12.9 °C 1.7 °C 1011.9 hPa Oeste 17.2 km/h 35.4 km/h 46.7% 0.0 mm
07:49 12.8 °C 1.6 °C 1011.9 hPa Oeste 17.2 km/h 27.4 km/h 46.4% 0.0 mm
07:54 12.8 °C 1.5 °C 1011.9 hPa Oeste 14.3 km/h 25.9 km/h 46.2% 0.0 mm
07:59 12.7 °C 1.4 °C 1011.9 hPa OSO 13.7 km/h 25.7 km/h 46% 0.0 mm
08:04 12.7 °C 1.4 °C 1011.9 hPa OSO 13.1 km/h 26.2 km/h 46% 0.0 mm
08:09 12.8 °C 1.4 °C 1011.9 hPa OSO 13 km/h 25.9 km/h 46% 0.0 mm
08:14 12.8 °C 1.4 °C 1011.9 hPa Oeste 13 km/h 25.9 km/h 46% 0.0 mm
08:19 12.8 °C 1.5 °C 1011.9 hPa OSO 13 km/h 29.6 km/h 46% 0.0 mm
08:24 12.9 °C 1.6 °C 1012.0 hPa OSO 14.5 km/h 29 km/h 46% 0.0 mm
08:29 13 °C 1.7 °C 1012.0 hPa OSO 14.8 km/h 28.6 km/h 46% 0.0 mm
08:34 13.1 °C 1.7 °C 1012.0 hPa Oeste 15.5 km/h 29.8 km/h 46% 0.0 mm
08:39 13.1 °C 1.7 °C 1012.4 hPa Oeste 15.6 km/h 30.6 km/h 46% 0.0 mm
08:44 13.2 °C 1.8 °C 1012.4 hPa Oeste 14.9 km/h 32.8 km/h 46% 0.0 mm
08:49 13.3 °C 1.9 °C 1012.4 hPa Oeste 14.8 km/h 33.8 km/h 46% 0.0 mm
08:54 13.3 °C 1.9 °C 1012.8 hPa Oeste 15.4 km/h 35.2 km/h 46% 0.0 mm
08:59 13.4 °C 2 °C 1012.8 hPa ONO 15.6 km/h 35.4 km/h 46% 0.0 mm
09:04 13.5 °C 2.1 °C 1012.8 hPa ONO 15.6 km/h 24.1 km/h 46% 0.0 mm
09:09 13.6 °C 2.1 °C 1013.1 hPa ONO 15.6 km/h 25.1 km/h 45.8% 0.0 mm
09:14 13.6 °C 2.1 °C 1013.1 hPa ONO 14.3 km/h 26.2 km/h 45.7% 0.0 mm
09:19 13.6 °C 2.2 °C 1013.1 hPa ONO 14 km/h 25.7 km/h 46% 0.0 mm
09:24 13.6 °C 2.2 °C 1013.1 hPa ONO 14 km/h 32.3 km/h 45.9% 0.0 mm
09:29 13.6 °C 1.9 °C 1013.1 hPa ONO 14 km/h 33.8 km/h 45.1% 0.0 mm
09:34 13.6 °C 2.2 °C 1013.1 hPa ONO 17.5 km/h 33.8 km/h 45.8% 0.0 mm
09:39 13.7 °C 2 °C 1013.1 hPa ONO 18.4 km/h 31.7 km/h 45.1% 0.0 mm
09:44 13.7 °C 2 °C 1013.0 hPa ONO 16.5 km/h 32.2 km/h 45.3% 0.0 mm
09:49 13.7 °C 2 °C 1013.0 hPa ONO 16.1 km/h 32.2 km/h 45.2% 0.0 mm
09:54 13.8 °C 1.8 °C 1013.0 hPa Oeste 14.4 km/h 35.9 km/h 44.3% 0.0 mm
09:59 13.9 °C 1.7 °C 1012.8 hPa ONO 14 km/h 35.4 km/h 43.6% 0.0 mm
10:04 13.9 °C 1.6 °C 1012.8 hPa ONO 18.8 km/h 30.6 km/h 43.2% 0.0 mm
10:09 14 °C 1.6 °C 1013.2 hPa ONO 19.8 km/h 30.6 km/h 43% 0.0 mm
10:14 14.1 °C 1.7 °C 1013.2 hPa ONO 19.2 km/h 29 km/h 43% 0.0 mm
10:19 14.2 °C 1.6 °C 1013.2 hPa ONO 19 km/h 38.9 km/h 42.2% 0.0 mm
10:24 14.2 °C 1.3 °C 1013.4 hPa Oeste 16.2 km/h 38.6 km/h 41.5% 0.0 mm
10:29 14.2 °C 1.3 °C 1013.4 hPa Oeste 15.6 km/h 35.4 km/h 41.5% 0.0 mm
10:34 14.3 °C 1.4 °C 1013.4 hPa ONO 17.8 km/h 32.2 km/h 41.6% 0.0 mm
10:39 14.4 °C 1.3 °C 1013.6 hPa Oeste 18.4 km/h 32.3 km/h 41% 0.0 mm
10:44 14.4 °C 1.2 °C 1013.6 hPa Oeste 16.5 km/h 33.8 km/h 40.6% 0.0 mm
10:49 14.6 °C 1.2 °C 1013.6 hPa ONO 16.1 km/h 33.5 km/h 40.2% 0.0 mm
10:54 14.5 °C 1.1 °C 1013.7 hPa ONO 16.1 km/h 33.8 km/h 40.2% 0.0 mm
10:59 14.6 °C 1.1 °C 1013.7 hPa ONO 16.1 km/h 29.6 km/h 40% 0.0 mm
11:04 14.7 °C 1.2 °C 1013.7 hPa ONO 14 km/h 32.3 km/h 39.9% 0.0 mm
11:09 14.8 °C 1.1 °C 1013.7 hPa ONO 13.7 km/h 37 km/h 39.3% 0.0 mm
11:14 14.9 °C 1.1 °C 1013.7 hPa ONO 17.2 km/h 37 km/h 39.1% 0.0 mm
11:19 14.9 °C 1.1 °C 1013.7 hPa ONO 18 km/h 39.6 km/h 39% 0.0 mm
11:24 14.9 °C 1 °C 1013.9 hPa ONO 20.4 km/h 40.2 km/h 39% 0.0 mm
11:29 14.9 °C 1.1 °C 1013.9 hPa Oeste 20.9 km/h 37 km/h 39.1% 0.0 mm
11:34 15.1 °C 1.2 °C 1013.9 hPa Oeste 18.8 km/h 35.2 km/h 38.9% 0.0 mm
11:39 15.2 °C 1.3 °C 1013.9 hPa Oeste 18.4 km/h 38.9 km/h 39% 0.0 mm
11:44 15.3 °C 1.2 °C 1013.7 hPa Oeste 18.4 km/h 39.9 km/h 38.5% 0.0 mm
11:49 15.3 °C 1.1 °C 1013.7 hPa Oeste 18.4 km/h 40.7 km/h 38.3% 0.0 mm
11:54 15.3 °C 1.2 °C 1013.8 hPa Oeste 18.1 km/h 33.8 km/h 38.3% 0.0 mm
11:59 15.3 °C 1.1 °C 1013.8 hPa ONO 18 km/h 33.3 km/h 38% 0.0 mm
12:04 15.3 °C 1.1 °C 1013.8 hPa ONO 18.8 km/h 35.2 km/h 38% 0.0 mm
12:09 15.4 °C 1.2 °C 1013.8 hPa ONO 19 km/h 35.4 km/h 38% 0.0 mm
12:14 15.6 °C 0.9 °C 1013.8 hPa Oeste 18.5 km/h 37.8 km/h 36.9% 0.0 mm
12:19 15.7 °C 0.7 °C 1013.8 hPa Oeste 18.4 km/h 37 km/h 36.2% 0.0 mm
12:24 15.7 °C 0.7 °C 1013.8 hPa Oeste 21 km/h 35.4 km/h 36.2% 0.0 mm
12:29 15.7 °C 0.8 °C 1013.8 hPa Oeste 21.7 km/h 37.8 km/h 36.2% 0.0 mm
12:34 15.7 °C 0.7 °C 1013.8 hPa OSO 18.7 km/h 37 km/h 36.2% 0.0 mm
12:39 15.9 °C 0.8 °C 1013.8 hPa Oeste 18 km/h 30.6 km/h 36.1% 0.0 mm
12:44 15.8 °C 0.7 °C 1013.6 hPa Oeste 17.4 km/h 27.4 km/h 36% 0.0 mm
12:49 15.9 °C 0.9 °C 1013.6 hPa Oeste 17.2 km/h 27.8 km/h 36% 0.0 mm
12:54 16.1 °C 0.9 °C 1013.6 hPa Oeste 13.1 km/h 27.4 km/h 35.9% 0.0 mm
12:59 16.2 °C 0.7 °C 1013.5 hPa Oeste 12.2 km/h 31.5 km/h 35.1% 0.0 mm
13:04 16.2 °C 0.8 °C 1013.5 hPa Oeste 13.7 km/h 32.2 km/h 35.4% 0.0 mm
13:09 16.2 °C 0.7 °C 1013.5 hPa Oeste 14 km/h 31.7 km/h 35% 0.0 mm
13:14 16.1 °C 0.6 °C 1013.4 hPa OSO 16.6 km/h 32.2 km/h 35% 0.0 mm
13:19 16.1 °C 0.6 °C 1013.4 hPa Oeste 17.2 km/h 32.2 km/h 35% 0.0 mm
13:24 16.2 °C 0.7 °C 1013.4 hPa Oeste 15.9 km/h 30.6 km/h 35.1% 0.0 mm
13:29 16.3 °C 0.8 °C 1013.2 hPa Oeste 15.6 km/h 40.7 km/h 35% 0.0 mm
13:34 16.3 °C 0.7 °C 1013.2 hPa Oeste 16.3 km/h 40.2 km/h 34.8% 0.0 mm
13:39 16.3 °C 0.7 °C 1013.2 hPa OSO 16.4 km/h 26.2 km/h 34.6% 0.0 mm
13:44 16.4 °C 0.5 °C 1013.0 hPa Oeste 15.1 km/h 38.1 km/h 34% 0.0 mm
13:49 16.4 °C 0.4 °C 1013.0 hPa Oeste 14.8 km/h 38.9 km/h 33.9% 0.0 mm
13:54 16.4 °C 0.5 °C 1013.1 hPa Oeste 19.1 km/h 38.6 km/h 34% 0.0 mm
13:59 16.6 °C 0.6 °C 1013.1 hPa Oeste 20.1 km/h 32.2 km/h 34% 0.0 mm
14:04 16.7 °C 0.8 °C 1013.1 hPa Oeste 16.3 km/h 33.3 km/h 34% 0.0 mm
14:09 16.7 °C 0.6 °C 1013.1 hPa Oeste 15.6 km/h 34.3 km/h 33.7% 0.0 mm
14:14 16.9 °C 0.8 °C 1013.0 hPa Oeste 16.9 km/h 34.3 km/h 33.7% 0.0 mm
14:19 16.9 °C 0.6 °C 1013.0 hPa Oeste 17.2 km/h 34.6 km/h 33.1% 0.0 mm
14:24 16.8 °C 0.7 °C 1013.0 hPa ONO 19.3 km/h 35.4 km/h 33.6% 0.0 mm
14:29 16.9 °C 0.8 °C 1013.0 hPa Oeste 19.8 km/h 39.6 km/h 33.6% 0.0 mm
14:34 17 °C 0.6 °C 1013.0 hPa Oeste 18.6 km/h 40.2 km/h 33% 0.0 mm
14:39 17 °C 0.6 °C 1013.0 hPa Oeste 18.4 km/h 38.6 km/h 33% 0.0 mm
14:44 17.1 °C 0.7 °C 1013.0 hPa Oeste 18.9 km/h 37 km/h 33% 0.0 mm
14:49 17.2 °C 0.7 °C 1013.0 hPa Oeste 19 km/h 33.8 km/h 33% 0.0 mm
14:54 17.3 °C 0.7 °C 1013.0 hPa Oeste 17.6 km/h 30.6 km/h 32.8% 0.0 mm
14:59 17.3 °C 0.8 °C 1013.0 hPa Oeste 17.2 km/h 31.7 km/h 32.9% 0.0 mm
15:04 17.3 °C 0.8 °C 1013.0 hPa ONO 17.2 km/h 32.2 km/h 33% 0.0 mm
15:09 17.3 °C 0.7 °C 1013.0 hPa Oeste 17.2 km/h 32.3 km/h 32.6% 0.0 mm
15:14 17.3 °C 0.7 °C 1013.0 hPa Oeste 18.1 km/h 37 km/h 32.7% 0.0 mm
15:19 17.3 °C 0.8 °C 1013.0 hPa ONO 18.4 km/h 37 km/h 33% 0.0 mm
15:24 17.3 °C 0.8 °C 1013.1 hPa ONO 18.4 km/h 35.4 km/h 33% 0.0 mm
15:29 17.3 °C 0.8 °C 1013.1 hPa ONO 18.4 km/h 32.2 km/h 33% 0.0 mm
15:34 17.5 °C 1 °C 1013.1 hPa OSO 14.8 km/h 22 km/h 33% 0.0 mm
15:39 17.6 °C 0.8 °C 1013.3 hPa Oeste 14 km/h 29.6 km/h 32.2% 0.0 mm
15:44 17.4 °C 1 °C 1013.3 hPa Oeste 14 km/h 31.7 km/h 33% 0.0 mm
15:49 17.6 °C 1.1 °C 1013.3 hPa OSO 14 km/h 32.2 km/h 33% 0.0 mm
15:54 17.6 °C 0.9 °C 1013.4 hPa OSO 14.7 km/h 27.8 km/h 32.6% 0.0 mm
15:59 17.4 °C 0.7 °C 1013.4 hPa OSO 14.8 km/h 31.5 km/h 32.3% 0.0 mm
16:04 17.4 °C 0.7 °C 1013.4 hPa OSO 16.2 km/h 33.3 km/h 32.2% 0.0 mm
16:09 17.5 °C 0.7 °C 1013.5 hPa Oeste 16.4 km/h 33.8 km/h 32.2% 0.0 mm
16:14 17.5 °C 0.7 °C 1013.5 hPa ONO 17.1 km/h 29 km/h 32.2% 0.0 mm
16:19 17.4 °C 0.7 °C 1013.5 hPa Oeste 17.2 km/h 27.8 km/h 32.4% 0.0 mm
16:24 17.4 °C 0.8 °C 1013.6 hPa OSO 15.9 km/h 27.4 km/h 32.5% 0.0 mm
16:29 17.6 °C 1.1 °C 1013.6 hPa OSO 15.6 km/h 24.1 km/h 33% 0.0 mm
16:34 17.7 °C 1.2 °C 1013.6 hPa Oeste 10.6 km/h 19.3 km/h 33% 0.0 mm
16:39 17.7 °C 0.9 °C 1013.8 hPa OSO 9.5 km/h 30.6 km/h 32.3% 0.0 mm
16:44 17.6 °C 0.7 °C 1013.8 hPa Oeste 14.5 km/h 30.6 km/h 32.2% 0.0 mm
16:49 17.5 °C 0.7 °C 1013.8 hPa OSO 15.6 km/h 27.8 km/h 32.1% 0.0 mm
16:54 17.4 °C 0.7 °C 1014.0 hPa Oeste 15.6 km/h 27.8 km/h 32.3% 0.0 mm
16:59 17.4 °C 0.9 °C 1014.0 hPa OSO 15.6 km/h 27.4 km/h 32.9% 0.0 mm
17:04 17.4 °C 0.7 °C 1014.0 hPa OSO 12.4 km/h 22.5 km/h 32.4% 0.0 mm
17:09 17.4 °C 0.5 °C 1014.0 hPa OSO 11.9 km/h 28.2 km/h 32% 0.0 mm
17:14 17.4 °C 0.8 °C 1014.0 hPa OSO 14.3 km/h 27.4 km/h 32.7% 0.0 mm
17:19 17.3 °C 0.8 °C 1014.0 hPa OSO 14.8 km/h 27.4 km/h 32.8% 0.0 mm
17:24 17.3 °C 0.7 °C 1014.2 hPa OSO 12.7 km/h 27.8 km/h 32.6% 0.0 mm
17:29 17.2 °C 0.7 °C 1014.2 hPa OSO 12.2 km/h 27.4 km/h 32.9% 0.0 mm
17:34 17.1 °C 0.6 °C 1014.2 hPa OSO 14.4 km/h 27.8 km/h 32.7% 0.0 mm
17:39 17.1 °C 0.7 °C 1014.2 hPa OSO 14.8 km/h 25.7 km/h 33% 0.0 mm
17:44 16.9 °C 0.5 °C 1014.2 hPa OSO 13.4 km/h 27.8 km/h 33% 0.0 mm
17:49 16.9 °C 0.5 °C 1014.2 hPa OSO 13 km/h 29.6 km/h 33% 0.0 mm
17:54 16.8 °C 0.4 °C 1014.5 hPa OSO 15.5 km/h 29 km/h 33% 0.0 mm
17:59 16.7 °C 0.4 °C 1014.5 hPa OSO 16.1 km/h 20.9 km/h 33.2% 0.0 mm
18:04 16.7 °C 0.5 °C 1014.5 hPa OSO 11.8 km/h 20.4 km/h 33.7% 0.0 mm
18:09 16.6 °C 0.6 °C 1014.8 hPa OSO 11.1 km/h 20.9 km/h 33.9% 0.0 mm
18:14 16.4 °C 0.5 °C 1014.8 hPa OSO 11.8 km/h 24.5 km/h 34% 0.0 mm
18:19 16.4 °C 0.5 °C 1014.8 hPa OSO 11.9 km/h 25.9 km/h 34% 0.0 mm
18:24 16.3 °C 0.4 °C 1015.0 hPa OSO 13.4 km/h 25.9 km/h 34% 0.0 mm
18:29 16.2 °C 0.3 °C 1015.0 hPa OSO 13.7 km/h 25.7 km/h 34% 0.0 mm
18:34 16.2 °C 0.3 °C 1015.0 hPa OSO 12.5 km/h 23.7 km/h 34% 0.0 mm
18:39 16.2 °C 0.3 °C 1015.3 hPa OSO 12.2 km/h 24.1 km/h 34% 0.0 mm
18:44 16.2 °C 0.3 °C 1015.3 hPa OSO 12.2 km/h 22.5 km/h 34% 0.0 mm
18:49 16.2 °C 0.3 °C 1015.3 hPa OSO 12.2 km/h 22.2 km/h 34% 0.0 mm
18:54 16.2 °C 0.3 °C 1015.6 hPa SO 12.2 km/h 22.5 km/h 34% 0.0 mm
18:59 16.1 °C 0.5 °C 1015.6 hPa SO 12.2 km/h 20.9 km/h 34.8% 0.0 mm
19:04 16 °C 0.5 °C 1015.6 hPa SO 10.3 km/h 17.7 km/h 35% 0.0 mm
19:09 15.9 °C 0.5 °C 1015.9 hPa SO 10 km/h 17.7 km/h 35% 0.0 mm
19:14 15.9 °C 0.4 °C 1015.9 hPa SO 9.6 km/h 17.7 km/h 35% 0.0 mm
19:19 15.9 °C 0.6 °C 1015.9 hPa SSO 9.5 km/h 17.7 km/h 35.4% 0.0 mm
19:24 15.8 °C 0.7 °C 1015.9 hPa SO 9.9 km/h 16.1 km/h 36% 0.0 mm
19:29 15.7 °C 0.7 °C 1015.8 hPa SO 10 km/h 18.5 km/h 36% 0.0 mm
19:34 15.6 °C 0.6 °C 1015.8 hPa SO 10.2 km/h 20.4 km/h 36% 0.0 mm
19:39 15.6 °C 0.6 °C 1016.1 hPa SO 10.3 km/h 22.5 km/h 36% 0.0 mm
19:44 15.5 °C 0.6 °C 1016.1 hPa SO 11 km/h 24.1 km/h 36.3% 0.0 mm
19:49 15.4 °C 0.8 °C 1016.1 hPa SO 11.1 km/h 24.1 km/h 37% 0.0 mm
19:54 15.4 °C 0.8 °C 1016.1 hPa SO 12 km/h 22.5 km/h 37% 0.0 mm
19:59 15.3 °C 0.7 °C 1016.1 hPa OSO 12.2 km/h 24.5 km/h 37% 0.0 mm
20:04 15.3 °C 0.7 °C 1016.1 hPa SO 12.2 km/h 24.1 km/h 37% 0.0 mm
20:09 15.3 °C 0.7 °C 1016.2 hPa OSO 12.2 km/h 20.9 km/h 37% 0.0 mm
20:14 15.3 °C 0.7 °C 1016.2 hPa OSO 12.2 km/h 24.5 km/h 37% 0.0 mm
20:19 15.3 °C 0.7 °C 1016.2 hPa OSO 12.2 km/h 28.6 km/h 37% 0.0 mm
20:24 15.4 °C 0.7 °C 1016.3 hPa SO 13.7 km/h 29.6 km/h 36.8% 0.0 mm
20:29 15.4 °C 0.4 °C 1016.3 hPa OSO 14 km/h 27.8 km/h 36% 0.0 mm
20:34 15.4 °C 0.7 °C 1016.3 hPa SO 13.7 km/h 25.7 km/h 36.8% 0.0 mm
20:39 15.3 °C 0.7 °C 1016.5 hPa OSO 13.7 km/h 24.1 km/h 37% 0.0 mm
20:44 15.3 °C 0.7 °C 1016.5 hPa SO 12.2 km/h 24.1 km/h 37% 0.0 mm
20:49 15.3 °C 0.7 °C 1016.5 hPa SO 11.9 km/h 28.2 km/h 37% 0.0 mm
20:54 15.3 °C 0.7 °C 1016.7 hPa SO 11.9 km/h 27.4 km/h 37% 0.0 mm
20:59 15.3 °C 0.7 °C 1016.7 hPa SO 11.9 km/h 17.2 km/h 37% 0.0 mm
21:04 15.3 °C 0.7 °C 1016.7 hPa SSO 9.2 km/h 17.7 km/h 37% 0.0 mm
21:09 15.3 °C 0.7 °C 1017.0 hPa SSO 8.7 km/h 18.3 km/h 37% 0.0 mm
21:14 15.3 °C 0.7 °C 1017.0 hPa SSO 9.8 km/h 20.4 km/h 37% 0.0 mm
21:19 15.3 °C 0.6 °C 1017.0 hPa Sur 10 km/h 20.9 km/h 37% 0.0 mm
21:24 15.2 °C 0.6 °C 1017.0 hPa Sur 10.2 km/h 18.5 km/h 37% 0.0 mm
21:29 15.1 °C 0.5 °C 1017.0 hPa Sur 10.3 km/h 19.3 km/h 37% 0.0 mm
21:34 15 °C 0.4 °C 1017.0 hPa SSO 10.3 km/h 19.3 km/h 37% 0.0 mm
21:39 14.9 °C 0.5 °C 1017.0 hPa Sur 10.3 km/h 14.5 km/h 37.4% 0.0 mm
21:44 14.9 °C 0.5 °C 1017.0 hPa Sur 8.1 km/h 14 km/h 37.6% 0.0 mm
21:49 14.8 °C 0.4 °C 1017.0 hPa Sur 7.6 km/h 14.8 km/h 37.5% 0.0 mm
21:54 14.7 °C 0.5 °C 1017.1 hPa Sur 9.1 km/h 15.6 km/h 38% 0.0 mm
21:59 14.6 °C 0.4 °C 1017.1 hPa SSE 9.5 km/h 17.2 km/h 38% 0.0 mm
22:04 14.6 °C 0.5 °C 1017.1 hPa SSE 10.2 km/h 24.5 km/h 38% 0.0 mm
22:09 14.7 °C 0.5 °C 1017.3 hPa Sur 10.3 km/h 25.9 km/h 38% 0.0 mm
22:14 14.7 °C 0.5 °C 1017.3 hPa SSO 12.5 km/h 25.7 km/h 38% 0.0 mm
22:19 14.7 °C 0.5 °C 1017.3 hPa SSO 13 km/h 20.9 km/h 38% 0.0 mm
22:24 14.6 °C 0.8 °C 1017.5 hPa SSO 11.5 km/h 20.9 km/h 39% 0.0 mm
22:29 14.4 °C 0.6 °C 1017.5 hPa SSO 11.1 km/h 22 km/h 39% 0.0 mm
22:34 14.6 °C 0.7 °C 1017.5 hPa SSO 12.7 km/h 22.5 km/h 38.9% 0.0 mm
22:39 14.8 °C 0.6 °C 1017.5 hPa SSO 13 km/h 24.1 km/h 38% 0.0 mm
22:44 14.7 °C 0.5 °C 1017.5 hPa SSO 12.4 km/h 24.5 km/h 38% 0.0 mm
22:49 14.6 °C 0.5 °C 1017.5 hPa SSO 12.2 km/h 24.1 km/h 38.2% 0.0 mm
22:54 14.5 °C 0.7 °C 1017.7 hPa SSO 13.4 km/h 21.7 km/h 39% 0.0 mm
22:59 14.3 °C 0.7 °C 1017.7 hPa SSO 13.7 km/h 20.9 km/h 39.3% 0.0 mm
23:04 14.2 °C 0.7 °C 1017.7 hPa SSO 11.5 km/h 20.1 km/h 40% 0.0 mm
23:09 14 °C 0.6 °C 1017.8 hPa SSO 11.1 km/h 20.9 km/h 40% 0.0 mm
23:14 14 °C 0.9 °C 1017.8 hPa SSO 11.8 km/h 19.3 km/h 41% 0.0 mm
23:19 13.9 °C 0.8 °C 1017.8 hPa SSO 11.9 km/h 17.7 km/h 41% 0.0 mm
23:24 13.9 °C 0.8 °C 1017.9 hPa SO 11.9 km/h 18.5 km/h 41% 0.0 mm
23:29 13.9 °C 0.9 °C 1017.9 hPa SSO 11.9 km/h 24.5 km/h 41% 0.0 mm
23:34 14.1 °C 1 °C 1017.9 hPa SSO 12.8 km/h 24.1 km/h 40.7% 0.0 mm
23:39 14.2 °C 0.8 °C 1017.9 hPa SSO 13 km/h 22.5 km/h 40% 0.0 mm
23:44 14.3 °C 0.9 °C 1017.9 hPa SO 13.6 km/h 22.5 km/h 40% 0.0 mm
23:49 14.3 °C 0.8 °C 1017.9 hPa SO 13.7 km/h 20.9 km/h 39.8% 0.0 mm
23:54 14.3 °C 0.6 °C 1017.9 hPa SO 11.6 km/h 19.8 km/h 39.3% 0.0 mm
23:59 14.2 °C 0.4 °C 1017.9 hPa SO 11.1 km/h 20.9 km/h 39% 0.0 mm
Murcia-Puente Tocinos, Espa?a
Compliments of Weather Underground - 3.25 mb

La estación de MeteoMurcia.com, publica sus datos en los siguientes proyectos:

Weather Underground PWS IMURCIAP2 Meteoclimatic www.awekas.at

W3Counter
Web Analytics